East Lexington, Virginia
Current Conditions -  °F | °C
As of 9:55 PM on Tuesday 25 Nov 2014 (Local Time) from KHSP Reporting Station
Clear Clear  
Wind Chill: 40°   Ceiling: Unl
Heat Index: 40°   Visibility: 10mi
Dew Point: 20°   Wind: 0mph
Humidity: 44%   Direction: NA
Pressure: 30.08"   Gusts: NA
Location:  37.7866°N, 79.5193°W
Report Text: KHSP 260255Z AUTO 00000KT 10SM CLR 05/M07 A3008 RMK AO2 T00461067
Loading
Personal Weather Stations






























Interactive Weather Map New forecast layout! Learn more

10-Day Weather Forecast

Advertisements
Track Severe Weather on mobile